Time;durP1;ratioP1;P1;durP2;ratioP2;P2;SDS_P1;SDS_P2;PMS_P1;PMS_P2;Temp;Humidity;BMP_temperature;BMP_pressure;BME280_temperature;BME280_humidity;BME280_pressure;Samples;Min_cycle;Max_cycle;Signal;HPM_P1;HPM_P2
2023/10/27 00:01:20;;;;;;;4.32;2.95;;;;;;;;;;5032661;28;20045;-79
2023/10/27 00:03:47;;;;;;;4.72;3.60;;;;;;;;;;5032528;28;20084;-80
2023/10/27 00:06:14;;;;;;;3.30;2.90;;;;;;;;;;5036085;28;20053;-79
2023/10/27 00:08:42;;;;;;;4.07;3.58;;;;;;;;;;5035134;28;20053;-80
2023/10/27 00:11:09;;;;;;;2.65;2.45;;;;;;;;;;5036342;28;20492;-80
2023/10/27 00:13:36;;;;;;;3.63;2.90;;;;;;;;;;5035286;28;20112;-79
2023/10/27 00:16:08;;;;;;;3.42;3.13;;;;;;;;;;5034505;28;20124;-79
2023/10/27 00:18:36;;;;;;;3.22;2.95;;;;;;;;;;5028179;28;20612;-80
2023/10/27 00:21:04;;;;;;;4.43;3.38;;;;;;;;;;5038230;28;20124;-79
2023/10/27 00:23:32;;;;;;;3.20;2.90;;;;;;;;;;5039647;28;20041;-79
2023/10/27 00:25:59;;;;;;;3.25;3.05;;;;;;;;;;5039196;28;20056;-79
2023/10/27 00:28:26;;;;;;;4.93;3.13;;;;;;;;;;5039289;28;20053;-80
2023/10/27 00:30:54;;;;;;;5.70;3.40;;;;;;;;;;5038902;28;20053;-79
2023/10/27 00:33:21;;;;;;;8.70;3.53;;;;;;;;;;5037199;28;20056;-79
2023/10/27 00:35:52;;;;;;;3.28;2.97;;;;;;;;;;5037334;28;20073;-79
2023/10/27 00:38:20;;;;;;;3.90;3.60;;;;;;;;;;5037335;28;20053;-79
2023/10/27 00:40:47;;;;;;;2.95;2.72;;;;;;;;;;5036847;28;20053;-79
2023/10/27 00:43:18;;;;;;;4.65;3.30;;;;;;;;;;5036523;28;20523;-79
2023/10/27 00:45:49;;;;;;;7.03;2.97;;;;;;;;;;5038018;28;20056;-79
2023/10/27 00:48:18;;;;;;;3.47;3.28;;;;;;;;;;5036787;28;20050;-80
2023/10/27 00:50:45;;;;;;;3.70;3.40;;;;;;;;;;5036373;28;20187;-79
2023/10/27 00:53:13;;;;;;;3.70;3.22;;;;;;;;;;5036180;28;20060;-79
2023/10/27 00:55:42;;;;;;;3.67;3.40;;;;;;;;;;5037288;28;20077;-80
2023/10/27 00:58:09;;;;;;;6.55;3.80;;;;;;;;;;5037175;28;20104;-80
2023/10/27 01:00:37;;;;;;;3.85;3.60;;;;;;;;;;5035841;28;20045;-80
2023/10/27 01:03:04;;;;;;;4.35;4.00;;;;;;;;;;5035815;28;20053;-80
2023/10/27 01:05:32;;;;;;;5.70;4.25;;;;;;;;;;5036762;28;20053;-79
2023/10/27 01:08:00;;;;;;;5.03;4.53;;;;;;;;;;5035582;28;20053;-79
2023/10/27 01:10:27;;;;;;;5.75;4.47;;;;;;;;;;5036312;28;20137;-79
2023/10/27 01:12:54;;;;;;;4.72;4.30;;;;;;;;;;5034557;28;20056;-79
2023/10/27 01:15:22;;;;;;;4.40;3.97;;;;;;;;;;5034880;28;20053;-79
2023/10/27 01:17:49;;;;;;;7.70;4.20;;;;;;;;;;5036082;28;20103;-79
2023/10/27 01:20:16;;;;;;;4.50;4.20;;;;;;;;;;5034824;28;20072;-80
2023/10/27 01:22:47;;;;;;;5.30;4.05;;;;;;;;;;5026175;28;20049;-79
2023/10/27 01:25:15;;;;;;;7.75;4.72;;;;;;;;;;5034662;28;20085;-79
2023/10/27 01:27:43;;;;;;;6.65;4.72;;;;;;;;;;5034602;28;20053;-79
2023/10/27 01:30:10;;;;;;;5.82;4.80;;;;;;;;;;5034583;28;20459;-79
2023/10/27 01:32:40;;;;;;;5.35;4.85;;;;;;;;;;5035313;28;20103;-79
2023/10/27 01:35:08;;;;;;;6.88;4.85;;;;;;;;;;5037727;28;20048;-80
2023/10/27 01:37:35;;;;;;;6.50;4.97;;;;;;;;;;5037104;28;20401;-80
2023/10/27 01:40:03;;;;;;;4.60;4.30;;;;;;;;;;5033931;28;20519;-79
2023/10/27 01:42:34;;;;;;;7.70;4.25;;;;;;;;;;5032739;28;20055;-79
2023/10/27 01:45:04;;;;;;;4.63;4.20;;;;;;;;;;5037295;28;20049;-80
2023/10/27 01:47:32;;;;;;;7.45;4.93;;;;;;;;;;5036975;28;20099;-80
2023/10/27 01:49:59;;;;;;;6.95;4.43;;;;;;;;;;5039068;28;20053;-79
2023/10/27 01:52:26;;;;;;;5.78;5.05;;;;;;;;;;5038429;28;20050;-79
2023/10/27 01:54:54;;;;;;;6.45;5.88;;;;;;;;;;5038897;28;20052;-80
2023/10/27 01:57:23;;;;;;;5.60;5.15;;;;;;;;;;5038857;28;20060;-81
2023/10/27 01:59:51;;;;;;;6.53;5.93;;;;;;;;;;5038260;28;20045;-80
2023/10/27 02:02:18;;;;;;;6.25;5.65;;;;;;;;;;5037319;28;20104;-80
2023/10/27 02:04:46;;;;;;;6.07;5.30;;;;;;;;;;5037239;28;20485;-79
2023/10/27 02:07:15;;;;;;;7.70;5.75;;;;;;;;;;5033044;28;20081;-79
2023/10/27 02:09:42;;;;;;;6.60;5.80;;;;;;;;;;5033261;28;20165;-79
2023/10/27 02:12:10;;;;;;;7.82;6.05;;;;;;;;;;5024360;28;20093;-80
2023/10/27 02:14:38;;;;;;;11.80;6.70;;;;;;;;;;5033925;28;20049;-80
2023/10/27 02:17:06;;;;;;;6.72;6.13;;;;;;;;;;5035887;28;20107;-80
2023/10/27 02:19:33;;;;;;;6.75;5.97;;;;;;;;;;5036331;28;20050;-79
2023/10/27 02:22:01;;;;;;;8.18;5.80;;;;;;;;;;5035233;28;20069;-79
2023/10/27 02:24:28;;;;;;;7.10;6.47;;;;;;;;;;5036055;28;20499;-79
2023/10/27 02:26:57;;;;;;;9.77;6.90;;;;;;;;;;5036482;28;20084;-79
2023/10/27 02:29:25;;;;;;;9.30;7.15;;;;;;;;;;5036241;28;20118;-80
2023/10/27 02:31:52;;;;;;;6.43;5.82;;;;;;;;;;5029969;28;20046;-80
2023/10/27 02:34:19;;;;;;;8.07;6.70;;;;;;;;;;5037944;28;20053;-81
2023/10/27 02:36:47;;;;;;;9.13;7.40;;;;;;;;;;5035466;28;20503;-80
2023/10/27 02:39:14;;;;;;;7.68;6.93;;;;;;;;;;5037049;28;20046;-80
2023/10/27 02:41:41;;;;;;;8.65;6.45;;;;;;;;;;5036095;28;20397;-80
2023/10/27 02:44:12;;;;;;;7.00;6.40;;;;;;;;;;5036753;28;20045;-79
2023/10/27 02:46:39;;;;;;;7.82;7.03;;;;;;;;;;5036728;28;20057;-79
2023/10/27 02:49:07;;;;;;;9.20;7.72;;;;;;;;;;5035367;28;20053;-79
2023/10/27 02:51:34;;;;;;;8.68;7.72;;;;;;;;;;5027971;28;20111;-79
2023/10/27 02:54:02;;;;;;;13.10;8.65;;;;;;;;;;5034103;28;20050;-80
2023/10/27 02:56:29;;;;;;;13.50;9.30;;;;;;;;;;5034622;28;20041;-80
2023/10/27 02:58:56;;;;;;;9.93;8.10;;;;;;;;;;5035315;28;20104;-78
2023/10/27 03:01:24;;;;;;;13.30;9.18;;;;;;;;;;5035265;28;20050;-79
2023/10/27 03:03:51;;;;;;;11.15;9.48;;;;;;;;;;5034694;28;20144;-79
2023/10/27 03:06:18;;;;;;;12.85;10.68;;;;;;;;;;5033980;28;20144;-80
2023/10/27 03:08:45;;;;;;;17.20;11.05;;;;;;;;;;5033639;28;20130;-79
2023/10/27 03:11:13;;;;;;;12.73;11.13;;;;;;;;;;5034785;28;20050;-80
2023/10/27 03:13:40;;;;;;;13.57;10.93;;;;;;;;;;5032890;28;20053;-80
2023/10/27 03:16:07;;;;;;;11.57;10.48;;;;;;;;;;5032937;28;20057;-79
2023/10/27 03:18:34;;;;;;;13.80;11.40;;;;;;;;;;5034240;28;20052;-80
2023/10/27 03:21:05;;;;;;;12.65;11.35;;;;;;;;;;5033269;28;20053;-79
2023/10/27 03:23:33;;;;;;;14.80;11.20;;;;;;;;;;5034974;28;20051;-79
2023/10/27 03:26:00;;;;;;;11.48;10.20;;;;;;;;;;5033047;28;20466;-80
2023/10/27 03:28:27;;;;;;;15.13;12.25;;;;;;;;;;5032793;28;20061;-79
2023/10/27 03:30:55;;;;;;;18.13;12.88;;;;;;;;;;5033842;28;20495;-79
2023/10/27 03:33:22;;;;;;;14.05;11.38;;;;;;;;;;5032457;28;20045;-80
2023/10/27 03:35:49;;;;;;;14.40;12.52;;;;;;;;;;5032501;28;20171;-79
2023/10/27 03:38:17;;;;;;;19.92;13.32;;;;;;;;;;5032434;28;20099;-79
2023/10/27 03:40:45;;;;;;;15.18;12.88;;;;;;;;;;5032245;28;20180;-80
2023/10/27 03:43:13;;;;;;;14.70;12.77;;;;;;;;;;5033382;28;20471;-79
2023/10/27 03:45:40;;;;;;;23.15;14.55;;;;;;;;;;5033361;28;20053;-79
2023/10/27 03:48:08;;;;;;;20.25;14.38;;;;;;;;;;5031854;28;20084;-79
2023/10/27 03:50:36;;;;;;;21.42;14.15;;;;;;;;;;5033216;28;20409;-79
2023/10/27 03:53:04;;;;;;;13.25;11.68;;;;;;;;;;5032451;28;20405;-78
2023/10/27 03:55:31;;;;;;;15.50;12.25;;;;;;;;;;5031370;28;20125;-78
2023/10/27 03:58:14;;;;;;;12.93;11.63;;;;;;;;;;5032396;28;20057;-79
2023/10/27 04:00:42;;;;;;;12.18;10.45;;;;;;;;;;5033800;28;20057;-79
2023/10/27 04:03:10;;;;;;;10.85;9.75;;;;;;;;;;5033589;28;20049;-79
2023/10/27 04:05:38;;;;;;;13.63;10.65;;;;;;;;;;5033395;28;20053;-78
2023/10/27 04:08:05;;;;;;;11.48;9.70;;;;;;;;;;5033204;28;20045;-78
2023/10/27 04:10:33;;;;;;;10.13;9.13;;;;;;;;;;5032915;28;20054;-79
2023/10/27 04:13:00;;;;;;;12.57;8.60;;;;;;;;;;5033005;28;20045;-79
2023/10/27 04:15:28;;;;;;;9.05;8.15;;;;;;;;;;5034180;28;20053;-79
2023/10/27 04:17:55;;;;;;;14.98;8.57;;;;;;;;;;5032897;28;20491;-78
2023/10/27 04:20:22;;;;;;;8.73;7.90;;;;;;;;;;5032504;28;20052;-79
2023/10/27 04:22:50;;;;;;;8.85;7.95;;;;;;;;;;5033017;28;20050;-78
2023/10/27 04:25:17;;;;;;;9.25;8.35;;;;;;;;;;5032738;28;20452;-79
2023/10/27 04:27:44;;;;;;;9.15;8.20;;;;;;;;;;5032141;28;20142;-80
2023/10/27 04:30:13;;;;;;;8.75;7.72;;;;;;;;;;5032875;28;20095;-79
2023/10/27 04:32:40;;;;;;;9.70;7.97;;;;;;;;;;5032082;28;20132;-79
2023/10/27 04:35:09;;;;;;;9.10;8.15;;;;;;;;;;5031729;28;20092;-80
2023/10/27 04:37:37;;;;;;;9.27;8.45;;;;;;;;;;5031842;28;20080;-80
2023/10/27 04:40:04;;;;;;;8.93;8.10;;;;;;;;;;5032220;28;20045;-80
2023/10/27 04:42:35;;;;;;;9.40;8.45;;;;;;;;;;5035183;23;20046;31
2023/10/27 04:45:03;;;;;;;8.77;7.88;;;;;;;;;;4991594;28;20046;-83
2023/10/27 04:47:30;;;;;;;9.73;8.40;;;;;;;;;;5008168;28;20120;-83
2023/10/27 04:49:57;;;;;;;9.02;8.13;;;;;;;;;;4993414;28;20050;-83
2023/10/27 04:52:24;;;;;;;11.23;9.27;;;;;;;;;;5008654;28;20302;-83
2023/10/27 04:54:52;;;;;;;10.52;9.38;;;;;;;;;;5007896;28;20129;-83
2023/10/27 04:57:19;;;;;;;10.43;9.40;;;;;;;;;;4992090;28;20046;-83
2023/10/27 04:59:46;;;;;;;13.25;10.80;;;;;;;;;;4993218;28;20051;-83
2023/10/27 05:02:14;;;;;;;14.10;11.57;;;;;;;;;;4991959;28;20120;-83
2023/10/27 05:04:41;;;;;;;12.18;10.65;;;;;;;;;;4995143;28;20108;-82
2023/10/27 05:07:10;;;;;;;17.00;12.57;;;;;;;;;;4987905;28;20112;-83
2023/10/27 05:09:37;;;;;;;13.75;11.45;;;;;;;;;;4988308;28;20046;-82
2023/10/27 05:12:05;;;;;;;12.50;11.20;;;;;;;;;;4995541;28;20085;-82
2023/10/27 05:14:34;;;;;;;12.95;10.73;;;;;;;;;;4996523;28;20054;-83
2023/10/27 05:17:01;;;;;;;16.58;11.25;;;;;;;;;;4996453;28;20129;-82
2023/10/27 05:19:28;;;;;;;18.70;12.25;;;;;;;;;;4996558;28;20112;-83
2023/10/27 05:21:56;;;;;;;11.55;10.40;;;;;;;;;;4995011;28;20054;-82
2023/10/27 05:24:24;;;;;;;13.75;10.52;;;;;;;;;;4995235;28;20517;-83
2023/10/27 05:26:51;;;;;;;11.65;10.15;;;;;;;;;;4995092;28;20079;-83
2023/10/27 05:29:18;;;;;;;11.15;10.05;;;;;;;;;;4994961;28;20112;-83
2023/10/27 05:31:46;;;;;;;11.15;10.05;;;;;;;;;;4994889;28;20121;-82
2023/10/27 05:34:15;;;;;;;11.10;10.05;;;;;;;;;;4995831;28;20050;-83
2023/10/27 05:36:43;;;;;;;13.18;10.80;;;;;;;;;;4987797;28;20042;-82
2023/10/27 05:39:16;;;;;;;11.52;9.80;;;;;;;;;;4994789;28;20129;-82
2023/10/27 05:41:46;;;;;;;12.40;10.65;;;;;;;;;;4995000;28;20046;-82
2023/10/27 05:44:15;;;;;;;11.00;9.75;;;;;;;;;;4994509;28;20046;-82
2023/10/27 05:46:43;;;;;;;14.85;10.70;;;;;;;;;;4994831;28;20101;-82
2023/10/27 05:49:10;;;;;;;14.57;9.93;;;;;;;;;;4996208;28;20054;-82
2023/10/27 05:51:37;;;;;;;12.73;9.80;;;;;;;;;;4995135;28;20057;-82
2023/10/27 05:54:05;;;;;;;12.52;10.55;;;;;;;;;;4996326;28;20505;-82
2023/10/27 05:56:32;;;;;;;13.75;12.10;;;;;;;;;;4995125;28;20074;-83
2023/10/27 05:58:59;;;;;;;14.25;11.95;;;;;;;;;;4996331;28;20498;-83
2023/10/27 06:01:27;;;;;;;14.50;11.70;;;;;;;;;;4997045;28;20112;-83
2023/10/27 06:03:57;;;;;;;14.40;12.10;;;;;;;;;;4988190;28;20050;-83
2023/10/27 06:06:25;;;;;;;13.52;11.05;;;;;;;;;;4981998;28;20059;-83
2023/10/27 06:08:52;;;;;;;11.43;9.70;;;;;;;;;;4994798;28;20102;-83
2023/10/27 06:11:20;;;;;;;14.35;11.02;;;;;;;;;;4996255;28;20046;-83
2023/10/27 06:13:47;;;;;;;11.65;9.50;;;;;;;;;;4996269;28;20054;-84
2023/10/27 06:16:14;;;;;;;10.75;9.48;;;;;;;;;;4995322;28;20054;-84
2023/10/27 06:18:42;;;;;;;12.13;9.90;;;;;;;;;;4994691;28;20489;-84
2023/10/27 06:21:09;;;;;;;7.50;6.82;;;;;;;;;;4987789;28;20046;-84
2023/10/27 06:23:36;;;;;;;10.30;7.63;;;;;;;;;;4980009;28;20050;-84
2023/10/27 06:26:04;;;;;;;8.50;6.78;;;;;;;;;;4995428;28;20101;-84
2023/10/27 06:28:34;;;;;;;6.95;6.35;;;;;;;;;;4994374;28;20050;-84
2023/10/27 06:31:02;;;;;;;6.93;6.03;;;;;;;;;;4994701;28;20468;-84
2023/10/27 06:33:32;;;;;;;6.00;5.50;;;;;;;;;;4994587;28;20050;-84
2023/10/27 06:36:00;;;;;;;6.63;5.82;;;;;;;;;;4994265;28;20058;-84
2023/10/27 06:38:27;;;;;;;13.57;6.55;;;;;;;;;;4994391;28;20054;-84
2023/10/27 06:40:54;;;;;;;8.93;6.97;;;;;;;;;;4993259;28;20108;-84
2023/10/27 06:43:22;;;;;;;7.45;6.53;;;;;;;;;;4987541;28;20469;-84
2023/10/27 06:45:49;;;;;;;6.60;6.00;;;;;;;;;;4994201;28;20069;-84
2023/10/27 06:48:16;;;;;;;6.13;5.53;;;;;;;;;;4995373;28;20042;-84
2023/10/27 06:50:44;;;;;;;7.63;6.05;;;;;;;;;;4993752;28;20050;-84
2023/10/27 06:53:11;;;;;;;6.43;5.82;;;;;;;;;;4988317;28;20042;-84
2023/10/27 06:55:38;;;;;;;5.68;5.28;;;;;;;;;;4994016;28;20093;-84
2023/10/27 06:58:07;;;;;;;5.85;5.35;;;;;;;;;;4987315;28;20456;-84
2023/10/27 07:00:34;;;;;;;5.97;5.47;;;;;;;;;;4993981;28;20042;-84
2023/10/27 07:03:01;;;;;;;6.45;5.85;;;;;;;;;;4993927;28;20051;-84
2023/10/27 07:05:32;;;;;;;7.75;6.82;;;;;;;;;;4993889;28;20043;-84
2023/10/27 07:07:59;;;;;;;6.65;6.15;;;;;;;;;;4995385;28;20058;-84
2023/10/27 07:10:27;;;;;;;6.50;5.90;;;;;;;;;;4995166;28;20054;-84
2023/10/27 07:12:54;;;;;;;6.25;5.75;;;;;;;;;;4994137;28;20082;-84
2023/10/27 07:15:22;;;;;;;6.05;5.60;;;;;;;;;;4995397;28;20523;-84
2023/10/27 07:17:49;;;;;;;6.00;5.53;;;;;;;;;;4986832;28;20130;-84
2023/10/27 07:20:16;;;;;;;5.72;5.22;;;;;;;;;;4994022;28;20073;-84
2023/10/27 07:22:44;;;;;;;5.25;4.85;;;;;;;;;;4994968;28;20417;-84
2023/10/27 07:25:11;;;;;;;4.57;4.28;;;;;;;;;;4993824;28;20066;-84
2023/10/27 07:27:38;;;;;;;5.05;4.55;;;;;;;;;;4994016;28;20054;-85
2023/10/27 07:30:06;;;;;;;4.97;4.53;;;;;;;;;;4995548;28;20120;-84
2023/10/27 07:32:33;;;;;;;5.43;4.50;;;;;;;;;;4995639;28;20054;-84
2023/10/27 07:35:00;;;;;;;3.65;3.35;;;;;;;;;;4993847;28;20046;-84
2023/10/27 07:37:28;;;;;;;3.50;3.30;;;;;;;;;;4994293;28;20050;-84
2023/10/27 07:39:55;;;;;;;5.05;4.65;;;;;;;;;;4994867;28;20050;-84
2023/10/27 07:42:22;;;;;;;3.80;3.50;;;;;;;;;;4994315;28;20050;-84
2023/10/27 07:44:50;;;;;;;4.22;4.00;;;;;;;;;;4993866;28;20054;-84
2023/10/27 07:47:17;;;;;;;3.50;3.30;;;;;;;;;;4994030;28;20579;-84
2023/10/27 07:49:44;;;;;;;4.05;3.63;;;;;;;;;;4992896;28;20058;-84
2023/10/27 07:52:12;;;;;;;3.38;3.28;;;;;;;;;;4986639;28;20051;-84
2023/10/27 07:54:39;;;;;;;4.22;3.95;;;;;;;;;;4993266;28;20054;-84
2023/10/27 07:57:06;;;;;;;4.20;3.65;;;;;;;;;;4995108;28;20054;-84
2023/10/27 07:59:33;;;;;;;4.95;4.38;;;;;;;;;;4993603;28;20050;-84
2023/10/27 08:02:01;;;;;;;4.13;3.80;;;;;;;;;;4993680;28;20050;-84
2023/10/27 08:04:32;;;;;;;4.22;3.92;;;;;;;;;;4993569;28;20497;-84
2023/10/27 08:06:59;;;;;;;3.78;3.58;;;;;;;;;;4994357;28;20089;-84
2023/10/27 08:09:29;;;;;;;3.70;3.50;;;;;;;;;;4987151;28;20050;-84
2023/10/27 08:11:56;;;;;;;3.10;2.85;;;;;;;;;;4993904;28;20406;-84
2023/10/27 08:14:24;;;;;;;4.38;3.38;;;;;;;;;;4995023;28;20046;-84
2023/10/27 08:16:51;;;;;;;3.40;3.20;;;;;;;;;;4995024;28;20105;-84
2023/10/27 08:19:18;;;;;;;3.47;3.20;;;;;;;;;;4990682;28;20126;-84
2023/10/27 08:21:48;;;;;;;2.35;2.25;;;;;;;;;;4991249;28;20512;-84
2023/10/27 08:24:16;;;;;;;2.80;2.60;;;;;;;;;;4994600;28;20489;-84
2023/10/27 08:26:43;;;;;;;2.45;2.35;;;;;;;;;;4994811;28;20050;-84
2023/10/27 08:29:11;;;;;;;2.50;2.40;;;;;;;;;;4993729;28;20054;-84
2023/10/27 08:31:38;;;;;;;3.70;2.30;;;;;;;;;;4987175;28;20502;-84
2023/10/27 08:34:10;;;;;;;2.47;2.38;;;;;;;;;;4985565;28;20050;-84
2023/10/27 08:36:39;;;;;;;2.93;2.73;;;;;;;;;;4994699;28;20042;-84
2023/10/27 08:39:06;;;;;;;3.45;3.20;;;;;;;;;;4995592;28;20494;-84
2023/10/27 08:41:36;;;;;;;3.65;3.42;;;;;;;;;;4997372;28;20116;-84
2023/10/27 08:44:06;;;;;;;3.20;3.10;;;;;;;;;;4997373;28;20053;-84
2023/10/27 08:46:53;;;;;;;3.85;3.63;;;;;;;;;;4998386;28;20394;-84
2023/10/27 08:49:21;;;;;;;3.30;3.20;;;;;;;;;;4998656;28;20509;-84
2023/10/27 08:51:48;;;;;;;2.75;2.65;;;;;;;;;;4998356;28;20130;-84
2023/10/27 08:54:16;;;;;;;3.58;3.33;;;;;;;;;;4998781;28;20070;-84
2023/10/27 08:56:43;;;;;;;2.90;2.80;;;;;;;;;;4997304;28;20050;-84
2023/10/27 08:59:10;;;;;;;2.63;2.53;;;;;;;;;;4998917;28;20468;-84
2023/10/27 09:01:38;;;;;;;2.60;2.50;;;;;;;;;;4998411;28;20046;-84
2023/10/27 09:04:09;;;;;;;3.50;2.72;;;;;;;;;;4998497;28;20050;-84
2023/10/27 09:06:37;;;;;;;3.00;2.90;;;;;;;;;;4989828;28;20082;-84
2023/10/27 09:09:05;;;;;;;2.92;2.75;;;;;;;;;;4998662;28;20050;-84
2023/10/27 09:11:40;;;;;;;2.60;2.40;;;;;;;;;;4997654;28;20113;-84
2023/10/27 09:14:22;;;;;;;2.90;2.70;;;;;;;;;;4989929;28;20054;-84
2023/10/27 09:16:50;;;;;;;2.55;2.42;;;;;;;;;;4995742;28;20069;-82
2023/10/27 09:19:21;;;;;;;3.30;3.10;;;;;;;;;;4996776;28;20082;-83
2023/10/27 09:21:48;;;;;;;6.55;6.05;;;;;;;;;;4996848;28;20101;-83
2023/10/27 09:24:22;;;;;;;7.22;6.63;;;;;;;;;;4998418;28;20072;-84
2023/10/27 09:26:50;;;;;;;5.13;4.65;;;;;;;;;;4999497;28;20058;-84
2023/10/27 09:29:17;;;;;;;4.50;4.20;;;;;;;;;;4997503;28;20050;-82
2023/10/27 09:31:44;;;;;;;5.10;4.15;;;;;;;;;;4994821;28;20120;-83
2023/10/27 09:34:23;;;;;;;4.55;3.65;;;;;;;;;;4992140;28;20046;-84
2023/10/27 09:36:55;;;;;;;3.92;3.60;;;;;;;;;;4993974;28;20179;-83
2023/10/27 09:39:23;;;;;;;4.20;3.40;;;;;;;;;;4997004;28;20112;-83
2023/10/27 09:42:03;;;;;;;3.65;3.35;;;;;;;;;;4998593;28;20065;-82
2023/10/27 09:44:34;;;;;;;3.35;3.15;;;;;;;;;;5001322;28;20057;-83
2023/10/27 09:47:03;;;;;;;3.75;3.35;;;;;;;;;;5001675;28;20046;-84
2023/10/27 09:49:33;;;;;;;3.47;3.17;;;;;;;;;;5016756;28;20051;-83
2023/10/27 09:52:01;;;;;;;4.50;3.85;;;;;;;;;;5004819;28;20035;-83
2023/10/27 09:54:32;;;;;;;7.28;5.00;;;;;;;;;;5011879;28;20078;-83
2023/10/27 09:57:00;;;;;;;4.75;4.25;;;;;;;;;;5017040;28;20060;-83
2023/10/27 09:59:30;;;;;;;8.07;3.30;;;;;;;;;;5003807;28;20110;-83
2023/10/27 10:02:05;;;;;;;4.72;2.42;;;;;;;;;;4995695;28;20054;-83
2023/10/27 10:04:50;;;;;;;7.40;2.63;;;;;;;;;;4994832;28;20134;-83
2023/10/27 10:07:34;;;;;;;7.07;1.75;;;;;;;;;;4995615;28;20054;-83
2023/10/27 10:10:17;;;;;;;7.28;1.80;;;;;;;;;;4995528;28;20055;-83
2023/10/27 10:13:00;;;;;;;9.07;1.98;;;;;;;;;;4994618;28;20138;-83
2023/10/27 10:15:31;;;;;;;7.38;2.92;;;;;;;;;;4994438;28;20082;-82
2023/10/27 10:17:59;;;;;;;6.60;2.30;;;;;;;;;;4994267;28;20075;-82
2023/10/27 10:20:44;;;;;;;13.18;2.22;;;;;;;;;;4994257;28;20128;-82
2023/10/27 10:23:12;;;;;;;5.85;2.17;;;;;;;;;;4995376;28;20390;-82
2023/10/27 10:25:55;;;;;;;9.52;2.38;;;;;;;;;;4994934;28;20467;-82
2023/10/27 10:28:23;;;;;;;6.10;2.10;;;;;;;;;;4995205;28;20133;-82
2023/10/27 10:31:18;;;;;;;10.32;2.08;;;;;;;;;;4986309;28;20106;-82
2023/10/27 10:33:46;;;;;;;5.10;1.80;;;;;;;;;;4993864;28;20050;-82
2023/10/27 10:36:22;;;;;;;10.20;2.25;;;;;;;;;;4995032;28;20060;-82
2023/10/27 10:38:56;;;;;;;6.20;2.08;;;;;;;;;;4993867;28;20053;-81
2023/10/27 10:41:53;;;;;;;6.15;1.83;;;;;;;;;;4994862;28;20054;-83
2023/10/27 10:44:20;;;;;;;6.47;1.95;;;;;;;;;;4979705;28;20116;-81
2023/10/27 10:46:49;;;;;;;5.22;2.00;;;;;;;;;;4997763;28;20394;-82
2023/10/27 10:49:24;;;;;;;5.65;1.92;;;;;;;;;;5001006;28;20120;-82
2023/10/27 10:51:58;;;;;;;7.53;2.40;;;;;;;;;;5000908;28;20081;-83
2023/10/27 10:54:29;;;;;;;5.18;1.98;;;;;;;;;;4999520;28;20086;-83
2023/10/27 10:57:00;;;;;;;7.13;2.88;;;;;;;;;;4999095;28;20065;-82
2023/10/27 10:59:28;;;;;;;15.77;8.27;;;;;;;;;;4997551;28;20054;-82
2023/10/27 11:01:56;;;;;;;7.25;2.20;;;;;;;;;;4996879;28;20051;-82
2023/10/27 11:04:30;;;;;;;8.10;2.70;;;;;;;;;;4996050;28;20046;-82
2023/10/27 11:07:02;;;;;;;3.25;2.08;;;;;;;;;;4998134;28;20046;-82
2023/10/27 11:09:31;;;;;;;6.47;2.25;;;;;;;;;;4995311;28;20054;-82
2023/10/27 11:11:59;;;;;;;8.07;2.90;;;;;;;;;;4997159;28;20054;-82
2023/10/27 11:14:26;;;;;;;8.52;2.15;;;;;;;;;;4999691;28;20050;-81
2023/10/27 11:17:03;;;;;;;5.88;2.00;;;;;;;;;;4997420;28;20050;-81
2023/10/27 11:19:31;;;;;;;12.13;2.58;;;;;;;;;;4996617;28;20058;-81
2023/10/27 11:21:58;;;;;;;8.70;2.25;;;;;;;;;;4999886;28;20140;-81
2023/10/27 11:24:25;;;;;;;6.60;1.70;;;;;;;;;;4997178;28;20043;-82
2023/10/27 11:26:52;;;;;;;4.93;2.22;;;;;;;;;;5003529;28;20054;-82
2023/10/27 11:29:19;;;;;;;9.43;2.20;;;;;;;;;;5000246;28;20058;-82
2023/10/27 11:31:48;;;;;;;6.35;2.20;;;;;;;;;;4999578;28;20109;-82
2023/10/27 11:34:20;;;;;;;7.72;2.50;;;;;;;;;;4997756;28;20425;-82
2023/10/27 11:37:06;;;;;;;5.32;2.33;;;;;;;;;;4998742;28;20051;-82
2023/10/27 11:39:36;;;;;;;6.03;2.75;;;;;;;;;;4997285;28;20066;-82
2023/10/27 11:42:03;;;;;;;8.65;2.67;;;;;;;;;;4996293;28;20046;-83
2023/10/27 11:44:32;;;;;;;5.78;2.20;;;;;;;;;;4996112;28;20051;-82
2023/10/27 11:47:04;;;;;;;4.47;1.77;;;;;;;;;;4995603;28;20051;-82
2023/10/27 11:49:32;;;;;;;7.63;2.38;;;;;;;;;;4996754;28;20050;-82
2023/10/27 11:52:00;;;;;;;7.38;2.38;;;;;;;;;;4997127;28;20062;-82
2023/10/27 11:54:28;;;;;;;9.30;2.33;;;;;;;;;;4998750;28;20109;-82
2023/10/27 11:56:55;;;;;;;6.07;2.28;;;;;;;;;;4998234;28;20050;-82
2023/10/27 11:59:27;;;;;;;6.53;2.40;;;;;;;;;;4996514;28;20057;-82
2023/10/27 12:01:54;;;;;;;5.63;2.67;;;;;;;;;;4997031;28;20046;-82
2023/10/27 12:04:21;;;;;;;6.53;2.63;;;;;;;;;;4997270;28;20047;-82
2023/10/27 12:06:52;;;;;;;6.32;2.58;;;;;;;;;;4995780;28;20042;-82
2023/10/27 12:09:20;;;;;;;7.18;2.22;;;;;;;;;;4997608;28;20077;-82
2023/10/27 12:11:48;;;;;;;4.00;2.05;;;;;;;;;;4997038;28;20065;-81
2023/10/27 12:14:15;;;;;;;4.60;1.80;;;;;;;;;;4996747;28;20057;-82
2023/10/27 12:16:43;;;;;;;5.45;2.15;;;;;;;;;;4995259;28;20050;-82
2023/10/27 12:19:13;;;;;;;3.15;1.75;;;;;;;;;;4998701;28;20051;-83
2023/10/27 12:21:41;;;;;;;4.80;1.77;;;;;;;;;;4997237;28;20549;-81
2023/10/27 12:24:09;;;;;;;6.25;1.92;;;;;;;;;;4994060;28;20628;-82
2023/10/27 12:26:36;;;;;;;5.70;1.95;;;;;;;;;;4994212;28;20489;-82
2023/10/27 12:29:04;;;;;;;3.13;1.45;;;;;;;;;;4996099;28;20046;-82
2023/10/27 12:31:35;;;;;;;3.10;1.20;;;;;;;;;;5002845;28;20109;-83
2023/10/27 12:34:03;;;;;;;3.40;1.60;;;;;;;;;;4998330;28;20054;-82
2023/10/27 12:36:30;;;;;;;2.72;1.40;;;;;;;;;;4999376;28;20553;-82
2023/10/27 12:38:57;;;;;;;4.93;1.67;;;;;;;;;;4998833;28;20100;-82
2023/10/27 12:41:25;;;;;;;3.67;1.30;;;;;;;;;;4999197;28;20054;-82
2023/10/27 12:43:52;;;;;;;3.08;1.02;;;;;;;;;;4998543;28;20169;-82
2023/10/27 12:46:19;;;;;;;4.75;1.10;;;;;;;;;;5000116;28;20058;-83
2023/10/27 12:48:48;;;;;;;1.20;0.50;;;;;;;;;;4999737;28;20501;-82
2023/10/27 12:51:16;;;;;;;0.65;0.50;;;;;;;;;;5001358;28;20078;-83
2023/10/27 12:53:43;;;;;;;1.08;0.80;;;;;;;;;;4999947;28;20505;-83
2023/10/27 12:56:11;;;;;;;2.63;1.33;;;;;;;;;;4999577;28;20054;-83
2023/10/27 12:58:38;;;;;;;5.07;1.48;;;;;;;;;;5002370;28;20440;-83
2023/10/27 13:01:06;;;;;;;1.25;0.98;;;;;;;;;;5000072;28;20050;-83
2023/10/27 13:03:34;;;;;;;1.20;1.02;;;;;;;;;;5001042;28;20046;-82
2023/10/27 13:06:02;;;;;;;2.10;1.23;;;;;;;;;;5001975;28;20047;-82
2023/10/27 13:08:29;;;;;;;1.25;1.00;;;;;;;;;;5003669;28;20078;-83
2023/10/27 13:10:57;;;;;;;1.42;1.00;;;;;;;;;;4995307;28;20051;-83
2023/10/27 13:13:24;;;;;;;1.95;0.80;;;;;;;;;;5002442;28;20051;-83
2023/10/27 13:15:52;;;;;;;0.73;0.70;;;;;;;;;;5000684;28;20047;-82
2023/10/27 13:18:19;;;;;;;1.08;0.98;;;;;;;;;;5003302;28;20046;-83
2023/10/27 13:20:48;;;;;;;2.78;0.80;;;;;;;;;;4999453;28;20501;-83
2023/10/27 13:23:15;;;;;;;2.40;1.17;;;;;;;;;;5003297;28;20047;-83
2023/10/27 13:25:44;;;;;;;1.02;1.00;;;;;;;;;;5002559;28;20042;-82
2023/10/27 13:28:14;;;;;;;1.85;1.20;;;;;;;;;;5001788;28;20046;-83
2023/10/27 13:30:51;;;;;;;1.52;1.13;;;;;;;;;;5003030;28;20058;-82
2023/10/27 13:33:18;;;;;;;1.95;0.68;;;;;;;;;;5005787;28;20050;-83
2023/10/27 13:35:46;;;;;;;2.40;0.93;;;;;;;;;;5005177;28;20472;-83
2023/10/27 13:38:14;;;;;;;0.75;0.75;;;;;;;;;;5006092;28;20050;-83
2023/10/27 13:40:44;;;;;;;1.25;1.00;;;;;;;;;;5006777;28;20046;-82
2023/10/27 13:43:14;;;;;;;2.22;2.00;;;;;;;;;;5003700;28;20069;-83
2023/10/27 13:45:42;;;;;;;1.00;1.00;;;;;;;;;;5006188;28;20046;-83
2023/10/27 13:48:11;;;;;;;2.28;1.13;;;;;;;;;;5003895;28;20074;-83
2023/10/27 13:50:38;;;;;;;1.25;0.88;;;;;;;;;;5003251;28;20050;-83
2023/10/27 13:53:07;;;;;;;3.67;1.00;;;;;;;;;;4999897;28;20069;-83
2023/10/27 13:55:35;;;;;;;1.33;0.82;;;;;;;;;;5007539;28;20077;-83
2023/10/27 13:58:04;;;;;;;1.02;0.57;;;;;;;;;;5008527;28;20073;-83
2023/10/27 14:00:31;;;;;;;1.52;1.10;;;;;;;;;;5008243;28;20077;-83
2023/10/27 14:02:59;;;;;;;3.33;1.20;;;;;;;;;;5005096;28;20101;-83
2023/10/27 14:05:26;;;;;;;3.28;1.20;;;;;;;;;;5009175;28;20053;-83
2023/10/27 14:07:53;;;;;;;3.20;1.35;;;;;;;;;;5007021;28;20078;-83
2023/10/27 14:10:21;;;;;;;3.22;1.92;;;;;;;;;;5008692;28;20115;-83
2023/10/27 14:12:48;;;;;;;3.67;3.30;;;;;;;;;;5007271;28;20113;-83
2023/10/27 14:15:19;;;;;;;2.33;2.13;;;;;;;;;;5005005;28;20050;-83
2023/10/27 14:17:47;;;;;;;2.28;2.08;;;;;;;;;;5004513;28;20082;-84
2023/10/27 14:20:20;;;;;;;1.70;1.60;;;;;;;;;;5005851;28;20425;-84
2023/10/27 14:22:47;;;;;;;0.60;0.60;;;;;;;;;;5004067;28;20052;-83
2023/10/27 14:25:15;;;;;;;1.02;0.80;;;;;;;;;;5006055;28;20042;-84
2023/10/27 14:27:43;;;;;;;2.55;1.00;;;;;;;;;;5005535;28;20051;-83
2023/10/27 14:30:11;;;;;;;1.67;1.00;;;;;;;;;;5003232;28;20500;-84
2023/10/27 14:32:39;;;;;;;1.17;0.68;;;;;;;;;;5001584;28;20054;-84
2023/10/27 14:35:06;;;;;;;6.05;0.40;;;;;;;;;;5005653;28;20054;-83
2023/10/27 14:37:34;;;;;;;0.95;0.22;;;;;;;;;;5003938;28;20081;-84
2023/10/27 14:40:03;;;;;;;0.40;0.30;;;;;;;;;;5004969;28;20417;-84
2023/10/27 14:42:31;;;;;;;0.65;0.30;;;;;;;;;;5007339;28;20042;-84
2023/10/27 14:44:58;;;;;;;0.52;0.30;;;;;;;;;;5003166;28;20073;-84
2023/10/27 14:47:26;;;;;;;0.40;0.30;;;;;;;;;;5006211;28;20046;-84